sensor_id;sensor_type;location;lat;lon;timestamp;P1;durP1;ratioP1;P2;durP2;ratioP2
19358;SDS011;9815;52.334;20.890;2024-02-26T00:00:05;26.03;;;13.37;;
19358;SDS011;9815;52.334;20.890;2024-02-26T00:02:37;33.00;;;14.73;;
19358;SDS011;9815;52.334;20.890;2024-02-26T00:05:07;27.90;;;14.20;;
19358;SDS011;9815;52.334;20.890;2024-02-26T00:07:36;33.10;;;15.67;;
19358;SDS011;9815;52.334;20.890;2024-02-26T00:10:07;32.30;;;15.17;;
19358;SDS011;9815;52.334;20.890;2024-02-26T00:12:37;26.83;;;14.80;;
19358;SDS011;9815;52.334;20.890;2024-02-26T00:15:06;27.57;;;14.53;;
19358;SDS011;9815;52.334;20.890;2024-02-26T00:17:36;35.20;;;15.13;;
19358;SDS011;9815;52.334;20.890;2024-02-26T00:20:05;27.40;;;14.70;;
19358;SDS011;9815;52.334;20.890;2024-02-26T00:22:35;27.30;;;14.93;;
19358;SDS011;9815;52.334;20.890;2024-02-26T00:25:06;30.20;;;14.43;;
19358;SDS011;9815;52.334;20.890;2024-02-26T00:27:35;29.73;;;14.33;;
19358;SDS011;9815;52.334;20.890;2024-02-26T00:30:06;30.17;;;14.70;;
19358;SDS011;9815;52.334;20.890;2024-02-26T00:32:36;29.93;;;14.50;;
19358;SDS011;9815;52.334;20.890;2024-02-26T00:35:05;29.10;;;13.93;;
19358;SDS011;9815;52.334;20.890;2024-02-26T00:37:36;32.63;;;14.10;;
19358;SDS011;9815;52.334;20.890;2024-02-26T00:40:05;32.70;;;14.63;;
19358;SDS011;9815;52.334;20.890;2024-02-26T00:42:36;26.47;;;13.37;;
19358;SDS011;9815;52.334;20.890;2024-02-26T00:45:05;28.97;;;13.87;;
19358;SDS011;9815;52.334;20.890;2024-02-26T00:47:35;28.57;;;14.77;;
19358;SDS011;9815;52.334;20.890;2024-02-26T00:50:04;28.97;;;13.60;;
19358;SDS011;9815;52.334;20.890;2024-02-26T00:52:34;34.43;;;15.30;;
19358;SDS011;9815;52.334;20.890;2024-02-26T00:55:03;28.43;;;13.97;;
19358;SDS011;9815;52.334;20.890;2024-02-26T00:57:34;29.10;;;14.33;;
19358;SDS011;9815;52.334;20.890;2024-02-26T01:00:04;29.77;;;14.80;;
19358;SDS011;9815;52.334;20.890;2024-02-26T01:02:35;26.13;;;13.50;;
19358;SDS011;9815;52.334;20.890;2024-02-26T01:05:05;26.93;;;13.10;;
19358;SDS011;9815;52.334;20.890;2024-02-26T01:07:35;29.10;;;12.73;;
19358;SDS011;9815;52.334;20.890;2024-02-26T01:10:05;30.67;;;12.77;;
19358;SDS011;9815;52.334;20.890;2024-02-26T01:12:36;27.50;;;12.50;;
19358;SDS011;9815;52.334;20.890;2024-02-26T01:15:05;24.13;;;13.00;;
19358;SDS011;9815;52.334;20.890;2024-02-26T01:17:35;26.57;;;12.90;;
19358;SDS011;9815;52.334;20.890;2024-02-26T01:20:06;27.57;;;13.00;;
19358;SDS011;9815;52.334;20.890;2024-02-26T01:22:35;25.03;;;12.67;;
19358;SDS011;9815;52.334;20.890;2024-02-26T01:25:05;25.00;;;13.43;;
19358;SDS011;9815;52.334;20.890;2024-02-26T01:27:37;22.50;;;12.63;;
19358;SDS011;9815;52.334;20.890;2024-02-26T01:30:08;24.40;;;12.07;;
19358;SDS011;9815;52.334;20.890;2024-02-26T01:32:37;29.00;;;13.90;;
19358;SDS011;9815;52.334;20.890;2024-02-26T01:35:06;26.33;;;12.73;;
19358;SDS011;9815;52.334;20.890;2024-02-26T01:37:38;26.47;;;12.20;;
19358;SDS011;9815;52.334;20.890;2024-02-26T01:40:08;33.43;;;13.53;;
19358;SDS011;9815;52.334;20.890;2024-02-26T01:42:39;31.33;;;13.47;;
19358;SDS011;9815;52.334;20.890;2024-02-26T01:45:09;35.57;;;14.20;;
19358;SDS011;9815;52.334;20.890;2024-02-26T01:47:48;24.13;;;12.60;;
19358;SDS011;9815;52.334;20.890;2024-02-26T01:50:19;33.77;;;13.27;;
19358;SDS011;9815;52.334;20.890;2024-02-26T01:52:49;26.03;;;13.17;;
19358;SDS011;9815;52.334;20.890;2024-02-26T01:55:19;35.00;;;13.63;;
19358;SDS011;9815;52.334;20.890;2024-02-26T01:57:51;29.23;;;13.30;;
19358;SDS011;9815;52.334;20.890;2024-02-26T02:00:21;26.97;;;13.37;;
19358;SDS011;9815;52.334;20.890;2024-02-26T02:02:51;30.77;;;15.13;;
19358;SDS011;9815;52.334;20.890;2024-02-26T02:05:21;29.97;;;15.53;;
19358;SDS011;9815;52.334;20.890;2024-02-26T02:07:51;31.80;;;14.90;;
19358;SDS011;9815;52.334;20.890;2024-02-26T02:10:20;31.47;;;15.00;;
19358;SDS011;9815;52.334;20.890;2024-02-26T02:12:54;27.83;;;14.87;;
19358;SDS011;9815;52.334;20.890;2024-02-26T02:15:22;30.37;;;14.60;;
19358;SDS011;9815;52.334;20.890;2024-02-26T02:17:51;28.07;;;14.47;;
19358;SDS011;9815;52.334;20.890;2024-02-26T02:20:24;35.87;;;15.67;;
19358;SDS011;9815;52.334;20.890;2024-02-26T02:22:54;34.47;;;14.60;;
19358;SDS011;9815;52.334;20.890;2024-02-26T02:25:23;31.20;;;15.40;;
19358;SDS011;9815;52.334;20.890;2024-02-26T02:27:52;32.77;;;15.00;;
19358;SDS011;9815;52.334;20.890;2024-02-26T02:30:22;31.30;;;14.93;;
19358;SDS011;9815;52.334;20.890;2024-02-26T02:32:53;30.70;;;14.20;;
19358;SDS011;9815;52.334;20.890;2024-02-26T02:35:24;33.63;;;14.20;;
19358;SDS011;9815;52.334;20.890;2024-02-26T02:37:53;29.07;;;14.80;;
19358;SDS011;9815;52.334;20.890;2024-02-26T02:40:23;32.50;;;14.87;;
19358;SDS011;9815;52.334;20.890;2024-02-26T02:42:52;33.40;;;13.60;;
19358;SDS011;9815;52.334;20.890;2024-02-26T02:45:21;33.33;;;14.43;;
19358;SDS011;9815;52.334;20.890;2024-02-26T02:47:50;28.43;;;14.77;;
19358;SDS011;9815;52.334;20.890;2024-02-26T02:50:19;28.60;;;14.13;;
19358;SDS011;9815;52.334;20.890;2024-02-26T02:52:50;29.77;;;14.20;;
19358;SDS011;9815;52.334;20.890;2024-02-26T02:55:19;32.17;;;14.47;;
19358;SDS011;9815;52.334;20.890;2024-02-26T02:57:48;26.87;;;13.63;;
19358;SDS011;9815;52.334;20.890;2024-02-26T03:00:17;29.73;;;13.63;;
19358;SDS011;9815;52.334;20.890;2024-02-26T03:02:46;28.90;;;13.33;;
19358;SDS011;9815;52.334;20.890;2024-02-26T03:05:15;23.20;;;12.47;;
19358;SDS011;9815;52.334;20.890;2024-02-26T03:07:44;27.20;;;13.53;;
19358;SDS011;9815;52.334;20.890;2024-02-26T03:10:14;26.50;;;14.27;;
19358;SDS011;9815;52.334;20.890;2024-02-26T03:12:43;30.83;;;14.83;;
19358;SDS011;9815;52.334;20.890;2024-02-26T03:15:12;28.47;;;13.00;;
19358;SDS011;9815;52.334;20.890;2024-02-26T03:17:41;26.37;;;13.30;;
19358;SDS011;9815;52.334;20.890;2024-02-26T03:20:10;27.90;;;13.60;;
19358;SDS011;9815;52.334;20.890;2024-02-26T03:22:39;29.20;;;13.50;;
19358;SDS011;9815;52.334;20.890;2024-02-26T03:25:08;28.37;;;14.10;;
19358;SDS011;9815;52.334;20.890;2024-02-26T03:27:38;31.03;;;14.50;;
19358;SDS011;9815;52.334;20.890;2024-02-26T03:30:07;27.40;;;13.73;;
19358;SDS011;9815;52.334;20.890;2024-02-26T03:32:37;30.23;;;13.20;;
19358;SDS011;9815;52.334;20.890;2024-02-26T03:35:07;25.97;;;13.77;;
19358;SDS011;9815;52.334;20.890;2024-02-26T03:37:36;31.40;;;14.07;;
19358;SDS011;9815;52.334;20.890;2024-02-26T03:40:05;29.53;;;13.53;;
19358;SDS011;9815;52.334;20.890;2024-02-26T03:42:35;28.83;;;13.60;;
19358;SDS011;9815;52.334;20.890;2024-02-26T03:45:06;28.63;;;13.40;;
19358;SDS011;9815;52.334;20.890;2024-02-26T03:47:37;32.83;;;14.33;;
19358;SDS011;9815;52.334;20.890;2024-02-26T03:50:07;35.20;;;14.00;;
19358;SDS011;9815;52.334;20.890;2024-02-26T03:52:36;30.63;;;14.27;;
19358;SDS011;9815;52.334;20.890;2024-02-26T03:55:05;25.27;;;13.83;;
19358;SDS011;9815;52.334;20.890;2024-02-26T03:57:34;27.73;;;14.03;;
19358;SDS011;9815;52.334;20.890;2024-02-26T04:00:06;31.50;;;14.27;;
19358;SDS011;9815;52.334;20.890;2024-02-26T04:02:40;31.33;;;13.30;;
19358;SDS011;9815;52.334;20.890;2024-02-26T04:05:09;27.53;;;14.17;;
19358;SDS011;9815;52.334;20.890;2024-02-26T04:07:38;30.80;;;14.10;;
19358;SDS011;9815;52.334;20.890;2024-02-26T04:10:10;27.93;;;13.50;;
19358;SDS011;9815;52.334;20.890;2024-02-26T04:12:39;29.57;;;13.13;;
19358;SDS011;9815;52.334;20.890;2024-02-26T04:15:10;31.77;;;14.17;;
19358;SDS011;9815;52.334;20.890;2024-02-26T04:17:39;28.60;;;13.17;;
19358;SDS011;9815;52.334;20.890;2024-02-26T04:20:12;29.37;;;13.67;;
19358;SDS011;9815;52.334;20.890;2024-02-26T04:22:42;28.27;;;13.33;;
19358;SDS011;9815;52.334;20.890;2024-02-26T04:25:11;25.43;;;13.57;;
19358;SDS011;9815;52.334;20.890;2024-02-26T04:27:40;27.80;;;13.80;;
19358;SDS011;9815;52.334;20.890;2024-02-26T04:30:11;28.07;;;13.40;;
19358;SDS011;9815;52.334;20.890;2024-02-26T04:32:40;26.70;;;14.10;;
19358;SDS011;9815;52.334;20.890;2024-02-26T04:35:09;31.20;;;14.47;;
19358;SDS011;9815;52.334;20.890;2024-02-26T04:37:38;32.93;;;14.10;;
19358;SDS011;9815;52.334;20.890;2024-02-26T04:40:07;27.77;;;14.00;;
19358;SDS011;9815;52.334;20.890;2024-02-26T04:42:36;34.43;;;15.00;;
19358;SDS011;9815;52.334;20.890;2024-02-26T04:45:05;30.63;;;14.63;;
19358;SDS011;9815;52.334;20.890;2024-02-26T04:47:36;34.07;;;15.57;;
19358;SDS011;9815;52.334;20.890;2024-02-26T04:50:05;38.43;;;14.87;;
19358;SDS011;9815;52.334;20.890;2024-02-26T04:52:34;34.83;;;16.00;;
19358;SDS011;9815;52.334;20.890;2024-02-26T04:55:03;34.73;;;16.07;;
19358;SDS011;9815;52.334;20.890;2024-02-26T04:57:32;34.83;;;15.80;;
19358;SDS011;9815;52.334;20.890;2024-02-26T05:00:01;32.73;;;15.73;;
19358;SDS011;9815;52.334;20.890;2024-02-26T05:02:31;35.37;;;16.33;;
19358;SDS011;9815;52.334;20.890;2024-02-26T05:05:06;33.23;;;16.03;;
19358;SDS011;9815;52.334;20.890;2024-02-26T05:07:39;35.50;;;15.70;;
19358;SDS011;9815;52.334;20.890;2024-02-26T05:10:09;36.63;;;17.07;;
19358;SDS011;9815;52.334;20.890;2024-02-26T05:12:37;37.27;;;16.10;;
19358;SDS011;9815;52.334;20.890;2024-02-26T05:15:09;42.00;;;18.40;;
19358;SDS011;9815;52.334;20.890;2024-02-26T05:17:39;52.33;;;20.50;;
19358;SDS011;9815;52.334;20.890;2024-02-26T05:20:10;51.67;;;19.63;;
19358;SDS011;9815;52.334;20.890;2024-02-26T05:22:38;72.53;;;24.70;;
19358;SDS011;9815;52.334;20.890;2024-02-26T05:25:07;80.73;;;24.50;;
19358;SDS011;9815;52.334;20.890;2024-02-26T05:27:36;121.57;;;32.40;;
19358;SDS011;9815;52.334;20.890;2024-02-26T05:30:05;121.30;;;33.80;;
19358;SDS011;9815;52.334;20.890;2024-02-26T05:32:35;103.87;;;31.00;;
19358;SDS011;9815;52.334;20.890;2024-02-26T05:35:04;109.10;;;31.83;;
19358;SDS011;9815;52.334;20.890;2024-02-26T05:37:35;96.10;;;30.00;;
19358;SDS011;9815;52.334;20.890;2024-02-26T05:40:04;100.77;;;31.73;;
19358;SDS011;9815;52.334;20.890;2024-02-26T05:42:34;89.37;;;28.77;;
19358;SDS011;9815;52.334;20.890;2024-02-26T05:45:02;91.83;;;29.13;;
19358;SDS011;9815;52.334;20.890;2024-02-26T05:47:33;87.70;;;29.33;;
19358;SDS011;9815;52.334;20.890;2024-02-26T05:50:02;90.77;;;31.60;;
19358;SDS011;9815;52.334;20.890;2024-02-26T05:52:31;84.40;;;31.43;;
19358;SDS011;9815;52.334;20.890;2024-02-26T05:55:01;83.67;;;28.60;;
19358;SDS011;9815;52.334;20.890;2024-02-26T05:57:30;77.10;;;29.20;;
19358;SDS011;9815;52.334;20.890;2024-02-26T05:59:59;79.97;;;28.30;;
19358;SDS011;9815;52.334;20.890;2024-02-26T06:02:40;81.00;;;28.27;;
19358;SDS011;9815;52.334;20.890;2024-02-26T06:05:08;77.20;;;28.17;;
19358;SDS011;9815;52.334;20.890;2024-02-26T06:07:38;79.53;;;28.40;;
19358;SDS011;9815;52.334;20.890;2024-02-26T06:10:08;74.30;;;29.03;;
19358;SDS011;9815;52.334;20.890;2024-02-26T06:12:40;70.63;;;27.53;;
19358;SDS011;9815;52.334;20.890;2024-02-26T06:15:09;63.90;;;27.70;;
19358;SDS011;9815;52.334;20.890;2024-02-26T06:17:39;69.07;;;26.83;;
19358;SDS011;9815;52.334;20.890;2024-02-26T06:20:08;70.10;;;27.27;;
19358;SDS011;9815;52.334;20.890;2024-02-26T06:22:40;71.63;;;27.90;;
19358;SDS011;9815;52.334;20.890;2024-02-26T06:25:11;82.63;;;29.30;;
19358;SDS011;9815;52.334;20.890;2024-02-26T06:27:39;73.20;;;26.97;;
19358;SDS011;9815;52.334;20.890;2024-02-26T06:30:08;69.43;;;27.50;;
19358;SDS011;9815;52.334;20.890;2024-02-26T06:32:38;61.90;;;26.30;;
19358;SDS011;9815;52.334;20.890;2024-02-26T06:35:07;55.30;;;26.70;;
19358;SDS011;9815;52.334;20.890;2024-02-26T06:37:38;64.23;;;27.20;;
19358;SDS011;9815;52.334;20.890;2024-02-26T06:40:08;62.57;;;26.37;;
19358;SDS011;9815;52.334;20.890;2024-02-26T06:42:39;58.60;;;26.83;;
19358;SDS011;9815;52.334;20.890;2024-02-26T06:45:08;67.70;;;30.07;;
19358;SDS011;9815;52.334;20.890;2024-02-26T06:47:37;64.57;;;29.20;;
19358;SDS011;9815;52.334;20.890;2024-02-26T06:50:06;69.67;;;29.73;;
19358;SDS011;9815;52.334;20.890;2024-02-26T06:52:35;70.83;;;31.70;;
19358;SDS011;9815;52.334;20.890;2024-02-26T06:55:04;87.93;;;37.90;;
19358;SDS011;9815;52.334;20.890;2024-02-26T06:57:35;76.30;;;35.77;;
19358;SDS011;9815;52.334;20.890;2024-02-26T07:00:06;89.57;;;36.80;;
19358;SDS011;9815;52.334;20.890;2024-02-26T07:02:41;75.90;;;38.33;;
19358;SDS011;9815;52.334;20.890;2024-02-26T07:05:10;80.90;;;40.60;;
19358;SDS011;9815;52.334;20.890;2024-02-26T07:07:39;106.33;;;47.87;;
19358;SDS011;9815;52.334;20.890;2024-02-26T07:10:08;112.73;;;48.80;;
19358;SDS011;9815;52.334;20.890;2024-02-26T07:12:40;117.17;;;53.97;;
19358;SDS011;9815;52.334;20.890;2024-02-26T07:15:10;112.53;;;51.10;;
19358;SDS011;9815;52.334;20.890;2024-02-26T07:17:39;88.93;;;40.97;;
19358;SDS011;9815;52.334;20.890;2024-02-26T07:20:13;91.10;;;42.17;;
19358;SDS011;9815;52.334;20.890;2024-02-26T07:22:44;97.13;;;38.33;;
19358;SDS011;9815;52.334;20.890;2024-02-26T07:25:13;73.00;;;34.23;;
19358;SDS011;9815;52.334;20.890;2024-02-26T07:27:42;73.27;;;36.57;;
19358;SDS011;9815;52.334;20.890;2024-02-26T07:30:13;67.73;;;32.53;;
19358;SDS011;9815;52.334;20.890;2024-02-26T07:32:43;62.90;;;31.43;;
19358;SDS011;9815;52.334;20.890;2024-02-26T07:35:17;60.30;;;31.13;;
19358;SDS011;9815;52.334;20.890;2024-02-26T07:37:47;61.83;;;30.70;;
19358;SDS011;9815;52.334;20.890;2024-02-26T07:40:16;66.70;;;34.10;;
19358;SDS011;9815;52.334;20.890;2024-02-26T07:42:45;67.23;;;35.27;;
19358;SDS011;9815;52.334;20.890;2024-02-26T07:45:16;59.80;;;31.43;;
19358;SDS011;9815;52.334;20.890;2024-02-26T07:47:47;62.57;;;31.10;;
19358;SDS011;9815;52.334;20.890;2024-02-26T07:50:18;58.20;;;30.27;;
19358;SDS011;9815;52.334;20.890;2024-02-26T07:52:47;68.93;;;32.33;;
19358;SDS011;9815;52.334;20.890;2024-02-26T07:55:17;56.87;;;28.93;;
19358;SDS011;9815;52.334;20.890;2024-02-26T07:57:46;52.70;;;25.53;;
19358;SDS011;9815;52.334;20.890;2024-02-26T08:00:17;49.07;;;24.40;;
19358;SDS011;9815;52.334;20.890;2024-02-26T08:02:49;46.33;;;22.87;;
19358;SDS011;9815;52.334;20.890;2024-02-26T08:05:18;39.83;;;21.73;;
19358;SDS011;9815;52.334;20.890;2024-02-26T08:07:47;47.07;;;23.47;;
19358;SDS011;9815;52.334;20.890;2024-02-26T08:10:16;39.97;;;21.13;;
19358;SDS011;9815;52.334;20.890;2024-02-26T08:12:44;42.50;;;20.10;;
19358;SDS011;9815;52.334;20.890;2024-02-26T08:15:13;40.83;;;19.83;;
19358;SDS011;9815;52.334;20.890;2024-02-26T08:17:43;37.90;;;18.97;;
19358;SDS011;9815;52.334;20.890;2024-02-26T08:20:14;40.60;;;18.77;;
19358;SDS011;9815;52.334;20.890;2024-02-26T08:22:43;41.47;;;20.00;;
19358;SDS011;9815;52.334;20.890;2024-02-26T08:25:12;39.77;;;19.00;;
19358;SDS011;9815;52.334;20.890;2024-02-26T08:27:41;37.27;;;18.37;;
19358;SDS011;9815;52.334;20.890;2024-02-26T08:30:10;35.70;;;18.20;;
19358;SDS011;9815;52.334;20.890;2024-02-26T08:32:44;35.83;;;17.37;;
19358;SDS011;9815;52.334;20.890;2024-02-26T08:35:17;34.13;;;17.67;;
19358;SDS011;9815;52.334;20.890;2024-02-26T08:37:47;33.53;;;15.60;;
19358;SDS011;9815;52.334;20.890;2024-02-26T08:40:16;28.03;;;14.00;;
19358;SDS011;9815;52.334;20.890;2024-02-26T08:42:46;22.63;;;13.67;;
19358;SDS011;9815;52.334;20.890;2024-02-26T08:45:15;31.77;;;13.70;;
19358;SDS011;9815;52.334;20.890;2024-02-26T08:47:46;23.27;;;12.73;;
19358;SDS011;9815;52.334;20.890;2024-02-26T08:50:15;24.30;;;13.33;;
19358;SDS011;9815;52.334;20.890;2024-02-26T08:52:43;28.30;;;13.23;;
19358;SDS011;9815;52.334;20.890;2024-02-26T08:55:15;25.77;;;12.80;;
19358;SDS011;9815;52.334;20.890;2024-02-26T08:57:43;26.53;;;11.87;;
19358;SDS011;9815;52.334;20.890;2024-02-26T09:00:12;20.57;;;11.53;;
19358;SDS011;9815;52.334;20.890;2024-02-26T09:02:45;20.63;;;11.83;;
19358;SDS011;9815;52.334;20.890;2024-02-26T09:05:16;19.20;;;11.93;;
19358;SDS011;9815;52.334;20.890;2024-02-26T09:07:45;21.53;;;11.27;;
19358;SDS011;9815;52.334;20.890;2024-02-26T09:10:14;19.70;;;10.80;;
19358;SDS011;9815;52.334;20.890;2024-02-26T09:12:43;18.47;;;11.27;;
19358;SDS011;9815;52.334;20.890;2024-02-26T09:15:12;22.47;;;10.80;;
19358;SDS011;9815;52.334;20.890;2024-02-26T09:17:41;20.37;;;10.30;;
19358;SDS011;9815;52.334;20.890;2024-02-26T09:20:15;23.10;;;11.40;;
19358;SDS011;9815;52.334;20.890;2024-02-26T09:22:49;20.90;;;10.87;;
19358;SDS011;9815;52.334;20.890;2024-02-26T09:25:18;16.67;;;10.77;;
19358;SDS011;9815;52.334;20.890;2024-02-26T09:27:47;18.97;;;10.73;;
19358;SDS011;9815;52.334;20.890;2024-02-26T09:30:16;20.23;;;11.17;;
19358;SDS011;9815;52.334;20.890;2024-02-26T09:32:46;19.07;;;11.73;;
19358;SDS011;9815;52.334;20.890;2024-02-26T09:35:16;17.90;;;11.47;;
19358;SDS011;9815;52.334;20.890;2024-02-26T09:37:45;19.23;;;10.47;;
19358;SDS011;9815;52.334;20.890;2024-02-26T09:40:15;21.43;;;11.63;;
19358;SDS011;9815;52.334;20.890;2024-02-26T09:42:44;23.17;;;11.97;;
19358;SDS011;9815;52.334;20.890;2024-02-26T09:45:17;21.73;;;13.10;;
19358;SDS011;9815;52.334;20.890;2024-02-26T09:47:49;19.43;;;12.33;;
19358;SDS011;9815;52.334;20.890;2024-02-26T09:50:20;23.23;;;12.47;;
19358;SDS011;9815;52.334;20.890;2024-02-26T09:52:50;30.10;;;16.40;;
19358;SDS011;9815;52.334;20.890;2024-02-26T09:55:20;17.67;;;11.47;;
19358;SDS011;9815;52.334;20.890;2024-02-26T09:57:49;20.57;;;12.77;;
19358;SDS011;9815;52.334;20.890;2024-02-26T10:00:20;23.47;;;12.80;;
19358;SDS011;9815;52.334;20.890;2024-02-26T10:02:50;18.60;;;11.70;;
19358;SDS011;9815;52.334;20.890;2024-02-26T10:05:21;26.60;;;13.20;;
19358;SDS011;9815;52.334;20.890;2024-02-26T10:07:50;22.50;;;12.80;;
19358;SDS011;9815;52.334;20.890;2024-02-26T10:10:22;22.10;;;13.03;;
19358;SDS011;9815;52.334;20.890;2024-02-26T10:12:51;17.77;;;10.77;;
19358;SDS011;9815;52.334;20.890;2024-02-26T10:15:20;20.77;;;11.60;;
19358;SDS011;9815;52.334;20.890;2024-02-26T10:17:49;18.60;;;11.30;;
19358;SDS011;9815;52.334;20.890;2024-02-26T10:20:18;18.97;;;11.80;;
19358;SDS011;9815;52.334;20.890;2024-02-26T10:22:50;17.47;;;12.10;;
19358;SDS011;9815;52.334;20.890;2024-02-26T10:25:19;19.33;;;12.23;;
19358;SDS011;9815;52.334;20.890;2024-02-26T10:27:48;22.23;;;12.67;;
19358;SDS011;9815;52.334;20.890;2024-02-26T10:30:19;23.87;;;13.43;;
19358;SDS011;9815;52.334;20.890;2024-02-26T10:32:50;21.60;;;12.67;;
19358;SDS011;9815;52.334;20.890;2024-02-26T10:35:19;23.30;;;13.17;;
19358;SDS011;9815;52.334;20.890;2024-02-26T10:37:50;23.40;;;13.43;;
19358;SDS011;9815;52.334;20.890;2024-02-26T10:40:19;23.53;;;12.70;;
19358;SDS011;9815;52.334;20.890;2024-02-26T10:42:48;19.80;;;13.33;;
19358;SDS011;9815;52.334;20.890;2024-02-26T10:45:16;23.50;;;13.73;;
19358;SDS011;9815;52.334;20.890;2024-02-26T10:47:45;23.53;;;13.20;;
19358;SDS011;9815;52.334;20.890;2024-02-26T10:50:14;17.60;;;11.30;;
19358;SDS011;9815;52.334;20.890;2024-02-26T10:52:44;20.27;;;12.47;;
19358;SDS011;9815;52.334;20.890;2024-02-26T10:55:15;19.70;;;12.53;;
19358;SDS011;9815;52.334;20.890;2024-02-26T10:57:46;18.57;;;11.80;;
19358;SDS011;9815;52.334;20.890;2024-02-26T11:00:18;19.47;;;12.47;;
19358;SDS011;9815;52.334;20.890;2024-02-26T11:02:47;19.17;;;11.63;;
19358;SDS011;9815;52.334;20.890;2024-02-26T11:05:17;18.53;;;12.37;;
19358;SDS011;9815;52.334;20.890;2024-02-26T11:07:46;18.27;;;11.40;;
19358;SDS011;9815;52.334;20.890;2024-02-26T11:10:18;19.43;;;11.97;;
19358;SDS011;9815;52.334;20.890;2024-02-26T11:12:47;20.70;;;12.77;;
19358;SDS011;9815;52.334;20.890;2024-02-26T11:15:17;16.67;;;11.70;;
19358;SDS011;9815;52.334;20.890;2024-02-26T11:17:47;17.90;;;11.57;;
19358;SDS011;9815;52.334;20.890;2024-02-26T11:20:16;17.80;;;11.63;;
19358;SDS011;9815;52.334;20.890;2024-02-26T11:22:47;17.73;;;11.63;;
19358;SDS011;9815;52.334;20.890;2024-02-26T11:25:18;19.67;;;11.70;;
19358;SDS011;9815;52.334;20.890;2024-02-26T11:27:47;15.50;;;10.90;;
19358;SDS011;9815;52.334;20.890;2024-02-26T11:30:21;16.23;;;10.63;;
19358;SDS011;9815;52.334;20.890;2024-02-26T11:32:52;17.37;;;10.07;;
19358;SDS011;9815;52.334;20.890;2024-02-26T11:35:21;19.50;;;10.63;;
19358;SDS011;9815;52.334;20.890;2024-02-26T11:37:51;18.27;;;10.10;;
19358;SDS011;9815;52.334;20.890;2024-02-26T11:40:23;14.73;;;9.27;;
19358;SDS011;9815;52.334;20.890;2024-02-26T11:42:53;14.23;;;8.93;;
19358;SDS011;9815;52.334;20.890;2024-02-26T11:48:28;13.57;;;9.27;;
19358;SDS011;9815;52.334;20.890;2024-02-26T11:50:57;21.60;;;10.60;;
19358;SDS011;9815;52.334;20.890;2024-02-26T11:53:26;15.03;;;8.93;;
19358;SDS011;9815;52.334;20.890;2024-02-26T11:56:16;12.00;;;8.20;;
19358;SDS011;9815;52.334;20.890;2024-02-26T11:59:03;15.30;;;9.17;;
19358;SDS011;9815;52.334;20.890;2024-02-26T12:01:40;11.03;;;8.10;;
19358;SDS011;9815;52.334;20.890;2024-02-26T12:04:16;16.97;;;8.30;;
19358;SDS011;9815;52.334;20.890;2024-02-26T12:06:50;13.70;;;8.87;;
19358;SDS011;9815;52.334;20.890;2024-02-26T12:09:33;16.93;;;8.60;;
19358;SDS011;9815;52.334;20.890;2024-02-26T12:12:05;11.40;;;8.77;;
19358;SDS011;9815;52.334;20.890;2024-02-26T12:14:37;14.33;;;8.27;;
19358;SDS011;9815;52.334;20.890;2024-02-26T12:17:07;19.93;;;8.93;;
19358;SDS011;9815;52.334;20.890;2024-02-26T12:19:46;18.07;;;6.93;;
19358;SDS011;9815;52.334;20.890;2024-02-26T12:22:15;11.53;;;6.47;;
19358;SDS011;9815;52.334;20.890;2024-02-26T12:24:44;10.93;;;6.00;;
19358;SDS011;9815;52.334;20.890;2024-02-26T12:27:14;10.67;;;5.43;;
19358;SDS011;9815;52.334;20.890;2024-02-26T12:29:43;9.20;;;6.23;;
19358;SDS011;9815;52.334;20.890;2024-02-26T12:32:12;10.20;;;5.90;;
19358;SDS011;9815;52.334;20.890;2024-02-26T12:34:40;9.33;;;5.93;;
19358;SDS011;9815;52.334;20.890;2024-02-26T12:37:09;13.13;;;7.23;;
19358;SDS011;9815;52.334;20.890;2024-02-26T12:39:39;8.43;;;5.53;;
19358;SDS011;9815;52.334;20.890;2024-02-26T12:42:07;8.77;;;5.90;;
19358;SDS011;9815;52.334;20.890;2024-02-26T12:44:39;13.07;;;6.23;;
19358;SDS011;9815;52.334;20.890;2024-02-26T12:47:07;9.97;;;5.60;;
19358;SDS011;9815;52.334;20.890;2024-02-26T12:49:37;8.53;;;6.00;;
19358;SDS011;9815;52.334;20.890;2024-02-26T12:52:06;8.93;;;5.43;;
19358;SDS011;9815;52.334;20.890;2024-02-26T12:54:35;10.77;;;6.17;;
19358;SDS011;9815;52.334;20.890;2024-02-26T12:57:06;9.10;;;5.80;;
19358;SDS011;9815;52.334;20.890;2024-02-26T12:59:36;9.67;;;5.20;;
19358;SDS011;9815;52.334;20.890;2024-02-26T13:02:07;9.10;;;5.20;;
19358;SDS011;9815;52.334;20.890;2024-02-26T13:04:38;9.17;;;5.13;;
19358;SDS011;9815;52.334;20.890;2024-02-26T13:07:07;8.53;;;5.30;;
19358;SDS011;9815;52.334;20.890;2024-02-26T13:09:36;9.50;;;5.53;;
19358;SDS011;9815;52.334;20.890;2024-02-26T13:12:07;6.80;;;4.93;;
19358;SDS011;9815;52.334;20.890;2024-02-26T13:14:37;11.73;;;5.57;;
19358;SDS011;9815;52.334;20.890;2024-02-26T13:17:08;9.97;;;5.43;;
19358;SDS011;9815;52.334;20.890;2024-02-26T13:19:37;9.87;;;5.03;;
19358;SDS011;9815;52.334;20.890;2024-02-26T13:22:17;7.53;;;5.00;;
19358;SDS011;9815;52.334;20.890;2024-02-26T13:24:53;6.67;;;4.43;;
19358;SDS011;9815;52.334;20.890;2024-02-26T13:27:22;6.30;;;4.67;;
19358;SDS011;9815;52.334;20.890;2024-02-26T13:30:03;6.53;;;4.70;;
19358;SDS011;9815;52.334;20.890;2024-02-26T13:32:34;8.73;;;5.27;;
19358;SDS011;9815;52.334;20.890;2024-02-26T13:35:04;17.03;;;5.30;;
19358;SDS011;9815;52.334;20.890;2024-02-26T13:37:34;6.60;;;4.40;;
19358;SDS011;9815;52.334;20.890;2024-02-26T13:40:06;7.93;;;4.90;;
19358;SDS011;9815;52.334;20.890;2024-02-26T13:42:36;6.40;;;4.37;;
19358;SDS011;9815;52.334;20.890;2024-02-26T13:45:07;9.20;;;3.93;;
19358;SDS011;9815;52.334;20.890;2024-02-26T13:47:37;7.57;;;3.80;;
19358;SDS011;9815;52.334;20.890;2024-02-26T13:50:08;5.17;;;3.10;;
19358;SDS011;9815;52.334;20.890;2024-02-26T13:52:37;9.97;;;3.83;;
19358;SDS011;9815;52.334;20.890;2024-02-26T13:55:06;5.50;;;3.50;;
19358;SDS011;9815;52.334;20.890;2024-02-26T13:57:35;11.03;;;3.30;;
19358;SDS011;9815;52.334;20.890;2024-02-26T14:00:08;7.00;;;3.80;;
19358;SDS011;9815;52.334;20.890;2024-02-26T14:02:39;9.23;;;3.97;;
19358;SDS011;9815;52.334;20.890;2024-02-26T14:05:08;6.80;;;3.97;;
19358;SDS011;9815;52.334;20.890;2024-02-26T14:07:38;7.40;;;4.33;;
19358;SDS011;9815;52.334;20.890;2024-02-26T14:10:08;8.17;;;4.13;;
19358;SDS011;9815;52.334;20.890;2024-02-26T14:12:39;8.03;;;3.90;;
19358;SDS011;9815;52.334;20.890;2024-02-26T14:15:09;13.37;;;3.90;;
19358;SDS011;9815;52.334;20.890;2024-02-26T14:17:39;4.97;;;3.37;;
19358;SDS011;9815;52.334;20.890;2024-02-26T14:20:09;7.27;;;3.77;;
19358;SDS011;9815;52.334;20.890;2024-02-26T14:22:38;7.43;;;4.20;;
19358;SDS011;9815;52.334;20.890;2024-02-26T14:25:07;5.63;;;3.60;;
19358;SDS011;9815;52.334;20.890;2024-02-26T14:27:37;4.37;;;3.47;;
19358;SDS011;9815;52.334;20.890;2024-02-26T14:30:07;5.27;;;3.13;;
19358;SDS011;9815;52.334;20.890;2024-02-26T14:32:37;5.13;;;3.30;;
19358;SDS011;9815;52.334;20.890;2024-02-26T14:35:07;5.23;;;3.10;;
19358;SDS011;9815;52.334;20.890;2024-02-26T14:37:44;5.37;;;3.17;;
19358;SDS011;9815;52.334;20.890;2024-02-26T14:40:15;10.13;;;2.77;;
19358;SDS011;9815;52.334;20.890;2024-02-26T14:42:45;6.10;;;3.20;;
19358;SDS011;9815;52.334;20.890;2024-02-26T14:45:14;4.13;;;2.80;;